Time;durP1;ratioP1;P1;durP2;ratioP2;P2;SDS_P1;SDS_P2;PMS_P1;PMS_P2;Temp;Humidity;BMP_temperature;BMP_pressure;BME280_temperature;BME280_humidity;BME280_pressure;Samples;Min_cycle;Max_cycle;Signal;HPM_P1;HPM_P2
2022/04/05 00:00:02;;;;;;;8.40;5.70;;;;;;;4.72;100.00;92877.50;5049462;28;20045;-81
2022/04/05 00:02:29;;;;;;;11.63;7.13;;;;;;;4.50;100.00;92859.69;5049837;28;20053;-81
2022/04/05 00:04:57;;;;;;;11.85;7.55;;;;;;;4.46;100.00;92856.72;5049478;28;20056;-81
2022/04/05 00:07:24;;;;;;;11.57;6.18;;;;;;;4.57;100.00;92883.41;5049867;28;20060;-81
2022/04/05 00:09:51;;;;;;;9.55;5.70;;;;;;;4.37;100.00;92861.13;5049639;28;20136;-81
2022/04/05 00:12:20;;;;;;;7.22;4.55;;;;;;;4.51;100.00;92879.84;5034028;28;20053;-81
2022/04/05 00:14:47;;;;;;;8.05;4.60;;;;;;;4.63;100.00;92894.63;5029549;28;20056;-81
2022/04/05 00:17:14;;;;;;;7.22;4.68;;;;;;;4.63;100.00;92890.31;5029970;28;20053;-81
2022/04/05 00:19:41;;;;;;;7.30;4.35;;;;;;;4.62;100.00;92885.41;5029687;28;20049;-81
2022/04/05 00:22:09;;;;;;;8.18;4.43;;;;;;;4.50;100.00;92874.94;5029816;28;20059;-81
2022/04/05 00:24:36;;;;;;;8.73;4.60;;;;;;;4.59;100.00;92890.88;5029399;28;20057;-81
2022/04/05 00:27:03;;;;;;;9.23;4.55;;;;;;;4.02;100.00;92807.53;5029109;28;20072;-81
2022/04/05 00:29:30;;;;;;;5.93;4.40;;;;;;;4.53;100.00;92884.75;5029262;28;20060;-81
2022/04/05 00:31:57;;;;;;;7.63;4.38;;;;;;;4.39;100.00;92859.19;5028702;28;20057;-81
2022/04/05 00:34:25;;;;;;;7.95;4.35;;;;;;;4.48;100.00;92880.19;5029117;28;20053;-81
2022/04/05 00:36:52;;;;;;;7.72;4.40;;;;;;;4.46;100.00;92876.25;5034396;28;20056;-81
2022/04/05 00:39:21;;;;;;;7.85;3.60;;;;;;;4.11;100.00;92824.28;5031609;28;20144;-81
2022/04/05 00:41:48;;;;;;;7.07;3.83;;;;;;;3.68;100.00;92776.69;5029141;28;20049;-81
2022/04/05 00:44:15;;;;;;;5.75;3.28;;;;;;;4.33;100.00;92866.72;5033238;28;20896;-81
2022/04/05 00:46:42;;;;;;;6.20;3.65;;;;;;;4.35;100.00;92863.03;5029411;28;20053;-81
2022/04/05 00:49:16;;;;;;;6.75;3.92;;;;;;;4.27;100.00;92856.31;5028983;28;20054;-80
2022/04/05 00:51:43;;;;;;;7.13;4.20;;;;;;;4.23;100.00;92867.03;5029102;28;20060;-80
2022/04/05 00:54:13;;;;;;;5.70;3.33;;;;;;;4.13;100.00;92857.91;5028778;28;20050;-80
2022/04/05 00:56:43;;;;;;;9.00;4.35;;;;;;;4.01;100.00;92841.56;5028862;28;20060;-80
2022/04/05 00:59:15;;;;;;;6.95;4.10;;;;;;;4.02;100.00;92840.59;5028863;28;20064;-80
2022/04/05 01:01:42;;;;;;;7.28;4.35;;;;;;;4.04;100.00;92846.28;5028941;28;20060;-80
2022/04/05 01:04:11;;;;;;;7.47;4.22;;;;;;;3.83;100.00;92822.41;5034252;28;20053;-80
2022/04/05 01:06:40;;;;;;;7.75;4.60;;;;;;;3.79;100.00;92815.31;5052915;28;20053;-80
2022/04/05 01:09:09;;;;;;;11.18;4.85;;;;;;;3.79;100.00;92826.25;5052029;28;20041;-80
2022/04/05 01:11:36;;;;;;;10.05;6.68;;;;;;;3.88;100.00;92832.03;5042886;28;20112;-80
2022/04/05 01:14:05;;;;;;;9.82;6.13;;;;;;;3.89;100.00;92841.22;5032652;28;20054;-80
2022/04/05 01:16:33;;;;;;;12.27;6.80;;;;;;;3.65;100.00;92817.69;5032421;28;20050;-80
2022/04/05 01:19:00;;;;;;;14.60;9.23;;;;;;;3.55;100.00;92815.41;5032767;28;20111;-80
2022/04/05 01:21:27;;;;;;;12.63;7.88;;;;;;;3.60;100.00;92830.91;5032878;28;20061;-80
2022/04/05 01:24:10;;;;;;;13.00;8.15;;;;;;;3.47;100.00;92816.28;5032339;28;20485;-80
2022/04/05 01:26:41;;;;;;;11.50;7.00;;;;;;;3.70;100.00;92843.34;5032389;28;20584;-80
2022/04/05 01:29:08;;;;;;;11.50;7.65;;;;;;;3.56;100.00;92836.53;5032363;28;20060;-80
2022/04/05 01:31:40;;;;;;;13.95;7.25;;;;;;;3.37;100.00;92805.63;5032109;28;20049;-80
2022/04/05 01:34:07;;;;;;;9.45;6.22;;;;;;;3.63;100.00;92846.75;5040035;28;20041;-80
2022/04/05 01:36:40;;;;;;;8.88;6.45;;;;;;;3.63;100.00;92849.31;5044477;28;20053;-80
2022/04/05 01:39:09;;;;;;;10.20;6.20;;;;;;;3.48;100.00;92830.56;5031722;28;20496;-80
2022/04/05 01:41:36;;;;;;;9.27;6.13;;;;;;;3.07;100.00;92866.50;5031772;28;20042;-80
2022/04/05 01:44:02;;;;;;;10.20;6.70;;;;;;;3.12;100.00;92855.84;5032075;28;20049;-80
2022/04/05 01:46:29;;;;;;;11.82;6.65;;;;;;;2.84;100.00;92803.91;5031698;28;20053;-80
2022/04/05 01:48:56;;;;;;;11.52;6.55;;;;;;;3.16;100.00;92844.38;5031251;28;20516;-80
2022/04/05 01:51:23;;;;;;;12.13;8.00;;;;;;;3.27;100.00;92851.56;5031663;28;20056;-80
2022/04/05 01:53:50;;;;;;;11.00;7.85;;;;;;;3.16;100.00;92844.38;5036328;28;20442;-80
2022/04/05 01:56:18;;;;;;;12.70;7.30;;;;;;;3.05;100.00;92845.56;5051420;28;20061;-80
2022/04/05 01:58:45;;;;;;;11.98;7.45;;;;;;;3.12;100.00;92849.03;5051168;28;20044;-80
2022/04/05 02:01:12;;;;;;;10.40;6.90;;;;;;;3.05;100.00;92837.97;5051195;28;20045;-80
2022/04/05 02:03:39;;;;;;;11.48;7.20;;;;;;;3.23;100.00;92852.88;5051564;28;20464;-80
2022/04/05 02:06:06;;;;;;;12.88;7.82;;;;;;;3.27;100.00;92845.69;5051101;28;20049;-80
2022/04/05 02:08:33;;;;;;;11.95;6.80;;;;;;;3.27;100.00;92845.69;5051410;28;20056;-80
2022/04/05 02:11:00;;;;;;;13.02;6.53;;;;;;;3.13;100.00;92832.03;5046628;28;20045;-80
2022/04/05 02:13:28;;;;;;;11.60;6.28;;;;;;;3.16;100.00;92832.47;5031448;28;20046;-80
2022/04/05 02:15:55;;;;;;;10.50;6.03;;;;;;;3.22;100.00;92843.69;5030412;28;20053;-80
2022/04/05 02:18:22;;;;;;;8.27;5.53;;;;;;;3.16;100.00;92840.06;5031363;28;20124;-80
2022/04/05 02:20:51;;;;;;;10.07;5.57;;;;;;;3.12;100.00;92836.34;5030850;28;20049;-80
2022/04/05 02:23:18;;;;;;;8.77;5.35;;;;;;;3.09;100.00;92835.88;5030997;28;20069;-80
2022/04/05 02:25:45;;;;;;;8.32;4.63;;;;;;;3.03;100.00;92833.09;5030910;28;20942;-80
2022/04/05 02:28:12;;;;;;;9.13;4.70;;;;;;;2.85;100.00;92813.09;5030712;28;20551;-80
2022/04/05 02:30:41;;;;;;;8.07;4.63;;;;;;;2.79;100.00;92798.56;5030913;28;20455;-80
2022/04/05 02:33:08;;;;;;;7.47;4.57;;;;;;;2.77;100.00;92808.06;5031010;28;20049;-80
2022/04/05 02:35:35;;;;;;;10.10;4.82;;;;;;;2.88;100.00;92830.50;5030999;28;20045;-80
2022/04/05 02:38:03;;;;;;;9.88;4.18;;;;;;;2.74;100.00;92816.03;5050117;28;20085;-80
2022/04/05 02:40:30;;;;;;;7.68;4.63;;;;;;;2.63;100.00;92791.88;5050595;28;20114;-80
2022/04/05 02:42:57;;;;;;;10.18;4.97;;;;;;;2.77;100.00;92813.94;5050549;28;20048;-80
2022/04/05 02:45:24;;;;;;;11.68;5.88;;;;;;;2.76;100.00;92803.97;5050679;28;20096;-79
2022/04/05 02:47:52;;;;;;;11.15;5.07;;;;;;;2.74;100.00;92805.91;5047076;28;20052;-79
2022/04/05 02:50:19;;;;;;;11.45;6.82;;;;;;;2.71;100.00;92813.84;5048110;28;20098;-79
2022/04/05 02:52:46;;;;;;;13.05;5.80;;;;;;;2.64;100.00;92808.69;5049854;28;20045;-79
2022/04/05 02:55:13;;;;;;;12.02;5.60;;;;;;;2.56;100.00;92812.06;5050074;28;20144;-79
2022/04/05 02:57:41;;;;;;;12.30;5.85;;;;;;;2.31;100.00;92808.91;5050247;28;20049;-79
2022/04/05 03:00:11;;;;;;;16.58;6.38;;;;;;;2.17;100.00;92792.69;5049940;28;20053;-79
2022/04/05 03:02:38;;;;;;;15.65;8.70;;;;;;;2.24;100.00;92804.53;5049800;28;20060;-79
2022/04/05 03:05:08;;;;;;;14.27;9.23;;;;;;;2.16;100.00;92793.66;5046577;28;20534;-79
2022/04/05 03:07:36;;;;;;;15.88;9.48;;;;;;;2.16;100.00;92794.44;5050386;28;20057;-79
2022/04/05 03:10:03;;;;;;;18.70;10.80;;;;;;;1.46;100.00;92680.41;5050371;28;20111;-79
2022/04/05 03:12:30;;;;;;;16.48;9.18;;;;;;;2.16;100.00;92786.06;5033797;28;20060;-79
2022/04/05 03:14:57;;;;;;;16.70;10.05;;;;;;;2.23;100.00;92802.91;5030114;28;20103;-80
2022/04/05 03:17:24;;;;;;;18.45;10.60;;;;;;;2.22;100.00;92793.75;5030422;28;20049;-80
2022/04/05 03:19:51;;;;;;;14.35;9.55;;;;;;;2.19;100.00;92794.09;5029879;28;20053;-80
2022/04/05 03:22:20;;;;;;;17.75;10.40;;;;;;;2.17;100.00;92797.75;5030419;28;20050;-80
2022/04/05 03:24:47;;;;;;;15.20;9.48;;;;;;;1.86;100.00;92746.16;5030236;28;20046;-80
2022/04/05 03:27:14;;;;;;;15.10;9.60;;;;;;;2.09;100.00;92784.16;5029317;28;20052;-80
2022/04/05 03:29:41;;;;;;;20.92;9.68;;;;;;;2.22;100.00;92803.88;5029826;28;20057;-80
2022/04/05 03:32:08;;;;;;;15.00;8.63;;;;;;;2.23;100.00;92799.63;5029612;28;20049;-80
2022/04/05 03:34:35;;;;;;;14.48;8.38;;;;;;;2.22;100.00;92801.34;5029605;28;20131;-79
2022/04/05 03:37:02;;;;;;;14.13;8.88;;;;;;;2.08;100.00;92780.06;5041313;28;20065;-80
2022/04/05 03:39:31;;;;;;;14.18;9.10;;;;;;;2.11;100.00;92789.06;5049251;28;20052;-79
2022/04/05 03:41:58;;;;;;;11.35;7.75;;;;;;;1.96;100.00;92766.22;5049754;28;20053;-80
2022/04/05 03:44:25;;;;;;;13.88;7.68;;;;;;;2.02;100.00;92778.19;5050176;28;20045;-80
2022/04/05 03:46:52;;;;;;;11.73;7.93;;;;;;;2.04;100.00;92783.09;5049286;28;20060;-79
2022/04/05 03:49:19;;;;;;;12.98;7.65;;;;;;;2.05;100.00;92780.41;5049242;28;20052;-79
2022/04/05 03:51:46;;;;;;;16.50;8.75;;;;;;;2.06;100.00;92788.78;5049198;28;20099;-79
2022/04/05 03:54:13;;;;;;;14.10;8.25;;;;;;;1.90;100.00;92779.53;5049148;28;20530;-79
2022/04/05 03:56:41;;;;;;;15.35;8.20;;;;;;;1.86;100.00;92781.63;5048930;28;20048;-79
2022/04/05 03:59:08;;;;;;;11.55;7.75;;;;;;;1.93;100.00;92805.31;5049254;28;20045;-79
2022/04/05 04:01:35;;;;;;;13.75;6.65;;;;;;;1.76;100.00;92778.50;5040751;28;20499;-80
2022/04/05 04:04:01;;;;;;;11.82;7.40;;;;;;;1.85;100.00;92797.78;5039697;28;20389;-80
2022/04/05 04:06:28;;;;;;;13.52;7.75;;;;;;;1.85;100.00;92796.03;5026529;28;20512;-80
2022/04/05 04:08:55;;;;;;;16.17;7.63;;;;;;;1.87;100.00;92796.63;5027604;28;20046;-80
2022/04/05 04:11:22;;;;;;;11.43;6.50;;;;;;;1.76;100.00;92793.69;5029081;28;20050;-79
2022/04/05 04:13:50;;;;;;;11.88;6.50;;;;;;;1.78;100.00;92805.25;5029124;28;21036;-79
2022/04/05 04:16:17;;;;;;;13.07;6.40;;;;;;;1.72;100.00;92806.69;5029442;28;20065;-79
2022/04/05 04:18:44;;;;;;;20.40;13.15;;;;;;;1.51;100.00;92793.78;5029520;28;20053;-79
2022/04/05 04:21:11;;;;;;;20.75;11.05;;;;;;;1.60;100.00;92801.22;5029657;28;20056;-79
2022/04/05 04:23:38;;;;;;;14.65;9.93;;;;;;;1.64;100.00;92798.34;5029707;28;20049;-78
2022/04/05 04:26:05;;;;;;;17.95;12.23;;;;;;;1.59;100.00;92806.44;5029791;28;20394;-78
2022/04/05 04:28:32;;;;;;;22.38;13.13;;;;;;;1.55;100.00;92808.50;5029639;28;20058;-78
2022/04/05 04:31:01;;;;;;;18.45;12.23;;;;;;;1.64;100.00;92811.78;5029439;28;20394;-78
2022/04/05 04:33:27;;;;;;;22.27;12.68;;;;;;;1.70;100.00;92803.53;5029403;28;20054;-78
2022/04/05 04:35:54;;;;;;;32.15;17.25;;;;;;;1.77;100.00;92805.41;5029687;28;20507;-77
2022/04/05 04:38:21;;;;;;;30.08;14.52;;;;;;;1.80;100.00;92794.97;5030316;28;20060;-78
2022/04/05 04:40:50;;;;;;;25.98;12.40;;;;;;;1.87;100.00;92798.41;5032784;28;20501;-78
2022/04/05 04:43:18;;;;;;;18.33;11.10;;;;;;;1.64;100.00;92778.09;5033016;28;20504;-78
2022/04/05 04:45:45;;;;;;;24.42;15.32;;;;;;;1.45;100.00;92782.59;5033555;28;20069;-78
2022/04/05 04:48:14;;;;;;;41.35;23.85;;;;;;;1.57;100.00;92806.59;5033434;28;20053;-78
2022/04/05 04:50:40;;;;;;;37.35;20.83;;;;;;;1.64;100.00;92804.19;5033111;28;20107;-78
2022/04/05 04:53:08;;;;;;;29.35;19.05;;;;;;;1.75;100.00;92807.31;5033435;28;20045;-78
2022/04/05 04:55:34;;;;;;;32.25;20.27;;;;;;;1.22;100.00;92714.19;5033453;28;20446;-79
2022/04/05 04:58:04;;;;;;;125.75;71.30;;;;;;;1.62;100.00;92780.78;5033143;28;20053;-78
2022/04/05 05:00:31;;;;;;;42.15;27.20;;;;;;;1.77;100.00;92797.81;5033166;28;20056;-78
2022/04/05 05:02:58;;;;;;;47.20;27.98;;;;;;;1.70;100.00;92792.59;5033154;28;20064;-79
2022/04/05 05:05:26;;;;;;;48.10;26.23;;;;;;;1.38;100.00;92758.91;5032964;28;20489;-78
2022/04/05 05:07:54;;;;;;;30.35;18.45;;;;;;;1.51;100.00;92786.19;5033206;28;20481;-78
2022/04/05 05:10:22;;;;;;;32.00;18.00;;;;;;;1.45;100.00;92803.63;5032782;28;20389;-78
2022/04/05 05:12:49;;;;;;;29.17;16.60;;;;;;;1.22;100.00;92808.63;5029608;28;20046;-79
2022/04/05 05:15:19;;;;;;;24.17;15.15;;;;;;;0.99;100.00;92785.72;5030593;28;20057;-78
2022/04/05 05:17:47;;;;;;;27.58;18.23;;;;;;;1.18;100.00;92812.41;5031278;28;20046;-79
2022/04/05 05:20:15;;;;;;;27.85;18.20;;;;;;;1.29;100.00;92811.28;5032275;28;20053;-79
2022/04/05 05:22:44;;;;;;;27.52;19.50;;;;;;;1.35;100.00;92818.22;5032197;28;20488;-79
2022/04/05 05:25:12;;;;;;;27.77;19.35;;;;;;;1.39;100.00;92789.09;5032725;28;20045;-79
2022/04/05 05:27:39;;;;;;;26.13;18.23;;;;;;;1.72;100.00;92808.44;5031762;28;20065;-79
2022/04/05 05:30:08;;;;;;;25.90;16.95;;;;;;;1.83;100.00;92804.75;5031830;28;20061;-80
2022/04/05 05:32:42;;;;;;;25.17;15.63;;;;;;;2.05;100.00;92823.47;5032110;28;20041;-82
2022/04/05 05:35:10;;;;;;;24.88;14.65;;;;;;;2.12;100.00;92806.66;5031949;28;20057;-80
2022/04/05 05:37:37;;;;;;;25.70;15.85;;;;;;;2.27;100.00;92806.72;5031980;28;20099;-80
2022/04/05 05:40:07;;;;;;;29.67;17.08;;;;;;;2.44;100.00;92808.34;5031636;28;20053;-80
2022/04/05 05:42:34;;;;;;;40.92;23.63;;;;;;;1.98;100.00;92711.88;5032061;28;20128;-81
2022/04/05 05:45:01;;;;;;;46.20;27.45;;;;;;;2.87;100.00;92818.00;5031859;28;20595;-81
2022/04/05 05:47:27;;;;;;;57.85;33.70;;;;;;;3.13;100.00;92820.13;5031545;28;20045;-81
2022/04/05 05:49:54;;;;;;;70.70;38.35;;;;;;;3.30;100.00;92808.09;5030623;28;20050;-81
2022/04/05 05:52:21;;;;;;;53.67;29.73;;;;;;;3.36;100.00;92773.56;5031591;28;20049;-81
2022/04/05 05:54:50;;;;;;;52.08;24.08;;;;;;;3.86;100.00;92819.53;5031774;28;20053;-81
2022/04/05 05:57:18;;;;;;;42.65;23.08;;;;;;;4.06;100.00;92816.41;5031221;28;20041;-80
2022/04/05 05:59:48;;;;;;;35.22;20.33;;;;;;;4.13;100.00;92814.69;5031528;28;20107;-80
2022/04/05 06:02:15;;;;;;;44.80;23.88;;;;;;;3.83;100.00;92814.78;5031343;28;20140;-80
2022/04/05 06:04:42;;;;;;;51.80;25.05;;;;;;;3.77;100.00;92809.63;5031608;28;20044;-80
2022/04/05 06:07:09;;;;;;;46.08;23.27;;;;;;;3.69;100.00;92800.34;5031559;28;20456;-80
2022/04/05 06:09:36;;;;;;;45.10;24.13;;;;;;;4.22;100.00;92812.06;5031676;28;20061;-80
2022/04/05 06:12:03;;;;;;;47.15;25.45;;;;;;;4.20;100.00;92793.66;5032024;28;20045;-80
2022/04/05 06:14:31;;;;;;;47.45;24.50;;;;;;;4.47;100.00;92793.91;5031200;28;20045;-80
2022/04/05 06:16:58;;;;;;;56.80;30.30;;;;;;;4.45;100.00;92809.38;5030881;28;20049;-80
2022/04/05 06:19:25;;;;;;;52.40;27.98;;;;;;;5.00;100.00;92816.44;5031337;28;20052;-80
2022/04/05 06:21:52;;;;;;;60.60;33.15;;;;;;;5.19;100.00;92822.66;5030022;28;20492;-79
2022/04/05 06:24:19;;;;;;;62.53;32.28;;;;;;;5.34;100.00;92825.09;5020046;28;20053;-81
2022/04/05 06:26:46;;;;;;;61.53;31.85;;;;;;;5.44;100.00;92789.09;5031431;28;20057;-80
2022/04/05 06:29:13;;;;;;;66.00;34.67;;;;;;;5.95;100.00;92809.31;5031449;28;20060;-81
2022/04/05 06:31:41;;;;;;;62.47;32.15;;;;;;;6.30;97.45;92824.56;5031143;28;20489;-80
2022/04/05 06:34:08;;;;;;;40.00;20.70;;;;;;;6.46;96.81;92812.41;5031090;28;20389;-81
2022/04/05 06:36:37;;;;;;;36.00;17.38;;;;;;;6.55;94.35;92827.34;5030489;28;20540;-80
2022/04/05 06:39:03;;;;;;;38.75;17.98;;;;;;;6.68;91.85;92797.72;5030813;28;20126;-81
2022/04/05 06:41:30;;;;;;;40.85;18.60;;;;;;;7.04;91.33;92798.31;5030731;28;20045;-80
2022/04/05 06:43:57;;;;;;;44.75;21.67;;;;;;;6.82;89.58;92813.84;5030258;28;20049;-81
2022/04/05 06:46:24;;;;;;;44.17;21.65;;;;;;;7.05;89.10;92802.44;5030690;28;20075;-81
2022/04/05 06:48:52;;;;;;;41.05;20.00;;;;;;;7.05;89.35;92795.53;5030573;28;20096;-81
2022/04/05 06:51:20;;;;;;;45.08;18.05;;;;;;;7.11;88.93;92811.84;5030517;28;20119;-80
2022/04/05 06:53:48;;;;;;;53.38;18.98;;;;;;;7.32;87.80;92779.41;5030572;28;20077;-82
2022/04/05 06:56:15;;;;;;;49.40;14.98;;;;;;;7.32;87.46;92810.06;5030371;28;20140;-81
2022/04/05 06:58:42;;;;;;;40.28;15.10;;;;;;;6.78;89.01;92789.66;5030784;28;20053;-81
2022/04/05 07:01:09;;;;;;;46.08;17.77;;;;;;;6.99;89.75;92808.34;5030181;28;20084;-80
2022/04/05 07:03:36;;;;;;;39.05;15.80;;;;;;;7.41;92.29;92795.31;5030419;28;20739;-81
2022/04/05 07:06:04;;;;;;;37.83;16.60;;;;;;;7.68;88.02;92764.56;5030996;28;20136;-81
2022/04/05 07:08:31;;;;;;;42.90;17.17;;;;;;;7.70;86.11;92806.03;5030872;28;20081;-81
2022/04/05 07:10:58;;;;;;;35.00;14.52;;;;;;;7.95;86.67;92801.03;5030402;28;20059;-80
2022/04/05 07:13:25;;;;;;;36.10;15.98;;;;;;;8.11;85.43;92815.13;5030862;28;20046;-81
2022/04/05 07:15:53;;;;;;;33.72;15.13;;;;;;;8.21;82.79;92807.03;5030792;28;20140;-81
2022/04/05 07:18:20;;;;;;;33.53;14.55;;;;;;;8.57;81.89;92809.22;5030622;28;20132;-82
2022/04/05 07:20:47;;;;;;;33.95;12.32;;;;;;;8.46;80.76;92810.63;5030049;28;20053;-81
2022/04/05 07:23:16;;;;;;;20.92;9.45;;;;;;;8.79;79.94;92817.31;5029820;28;20453;-82
2022/04/05 07:25:43;;;;;;;20.05;7.25;;;;;;;8.74;78.77;92797.47;5030145;28;20079;-82
2022/04/05 07:28:10;;;;;;;22.77;8.48;;;;;;;8.75;77.60;92772.66;5029561;28;20516;-82
2022/04/05 07:30:37;;;;;;;18.75;7.30;;;;;;;8.88;78.20;92803.28;5030105;28;20443;-82
2022/04/05 07:33:04;;;;;;;20.77;7.18;;;;;;;8.92;79.73;92780.59;5029970;28;20045;-82
2022/04/05 07:35:31;;;;;;;26.60;8.70;;;;;;;9.32;78.00;92815.34;5029592;28;20049;-82
2022/04/05 07:37:58;;;;;;;20.80;6.88;;;;;;;9.35;75.06;92795.19;5029816;28;20072;-82
2022/04/05 07:40:47;;;;;;;13.70;5.95;;;;;;;9.57;74.83;92794.00;5029568;28;20045;-82
2022/04/05 07:43:13;;;;;;;18.52;7.68;;;;;;;9.26;75.88;92795.69;5029346;28;20076;-82
2022/04/05 07:45:40;;;;;;;24.08;8.00;;;;;;;9.75;74.25;92813.72;5029719;28;20195;-82
2022/04/05 07:48:08;;;;;;;21.13;8.43;;;;;;;9.11;73.10;92781.41;5029551;28;20401;-82
2022/04/05 07:50:35;;;;;;;18.80;7.55;;;;;;;9.28;74.36;92806.50;5029394;28;20049;-82
2022/04/05 07:53:01;;;;;;;23.58;9.10;;;;;;;9.28;74.82;92802.16;5035882;28;20053;-81
2022/04/05 07:55:30;;;;;;;24.00;9.23;;;;;;;9.64;78.96;92781.91;5047918;28;20454;-81
2022/04/05 07:57:57;;;;;;;22.25;7.72;;;;;;;9.78;73.10;92772.28;5049036;28;20060;-82
2022/04/05 08:00:26;;;;;;;26.35;8.65;;;;;;;10.33;74.79;92775.75;5049363;28;20075;-82
2022/04/05 08:02:53;;;;;;;23.80;7.90;;;;;;;10.73;68.37;92781.34;5048927;28;20511;-82
2022/04/05 08:05:20;;;;;;;20.83;7.55;;;;;;;11.20;68.90;92801.94;5048970;28;20140;-82
2022/04/05 08:07:47;;;;;;;25.15;7.35;;;;;;;11.58;70.70;92796.56;5048950;28;20049;-83
2022/04/05 08:10:14;;;;;;;12.93;5.65;;;;;;;11.90;67.26;92798.75;5049067;28;20052;-82
2022/04/05 08:12:43;;;;;;;15.50;5.72;;;;;;;11.98;66.25;92759.78;5048512;28;20060;-82
2022/04/05 08:15:11;;;;;;;16.63;5.40;;;;;;;12.20;62.94;92795.22;5049009;28;20061;-82
2022/04/05 08:17:38;;;;;;;10.48;4.30;;;;;;;12.36;61.69;92793.69;5048929;28;20114;-82
2022/04/05 08:20:06;;;;;;;9.90;4.78;;;;;;;12.44;63.48;92787.38;5049068;28;20067;-82
2022/04/05 08:22:33;;;;;;;9.52;4.30;;;;;;;12.02;59.16;92781.47;5049143;28;20084;-82
2022/04/05 08:25:00;;;;;;;11.80;4.80;;;;;;;11.11;60.57;92744.16;5048722;28;20057;-82
2022/04/05 08:27:27;;;;;;;10.45;4.20;;;;;;;11.80;60.89;92778.72;5048933;28;20045;-82
2022/04/05 08:29:55;;;;;;;12.45;3.78;;;;;;;12.03;61.62;92770.16;5049188;28;20057;-82
2022/04/05 08:32:22;;;;;;;7.60;4.65;;;;;;;10.66;62.41;92771.16;5049033;28;20053;-82
2022/04/05 08:34:49;;;;;;;8.95;4.70;;;;;;;11.61;67.69;92773.75;5048828;28;20578;-82
2022/04/05 08:37:17;;;;;;;12.43;5.05;;;;;;;12.20;64.49;92766.09;5048701;28;20059;-82
2022/04/05 08:39:43;;;;;;;12.23;4.60;;;;;;;12.61;64.45;92750.56;5048905;28;20071;-82
2022/04/05 08:42:12;;;;;;;10.30;4.22;;;;;;;12.86;58.66;92734.72;5048874;28;20049;-82
2022/04/05 08:44:39;;;;;;;7.47;3.67;;;;;;;11.96;56.15;92758.44;5049022;28;20442;-82
2022/04/05 08:47:09;;;;;;;10.32;4.38;;;;;;;11.80;56.22;92742.69;5048887;28;20045;-82
2022/04/05 08:49:38;;;;;;;10.77;5.28;;;;;;;12.29;61.49;92749.28;5048461;28;20053;-83
2022/04/05 08:52:05;;;;;;;9.85;4.60;;;;;;;12.79;61.36;92742.63;5049375;28;20072;-82
2022/04/05 08:54:32;;;;;;;10.32;4.10;;;;;;;13.04;56.25;92746.56;5048615;28;20500;-83
2022/04/05 08:56:59;;;;;;;9.70;4.63;;;;;;;12.67;56.79;92745.25;5048519;28;20065;-82
2022/04/05 08:59:30;;;;;;;10.52;4.45;;;;;;;10.86;59.15;92731.50;5048895;28;20049;-82
2022/04/05 09:01:57;;;;;;;7.68;4.10;;;;;;;10.81;60.76;92740.69;5048351;28;20049;-81
2022/04/05 09:04:32;;;;;;;7.68;3.42;;;;;;;11.41;60.59;92720.09;5037586;28;20045;-82
2022/04/05 09:07:18;;;;;;;6.32;3.25;;;;;;;11.76;61.09;92700.44;5048482;28;20049;-82
2022/04/05 09:09:45;;;;;;;5.82;2.95;;;;;;;12.02;52.68;92699.09;5048754;28;20435;-82
2022/04/05 09:12:17;;;;;;;5.78;3.13;;;;;;;12.51;52.10;92735.72;5048749;28;20057;-82
2022/04/05 09:14:44;;;;;;;8.07;3.45;;;;;;;12.96;57.89;92728.91;5048911;28;20084;-82
2022/04/05 09:17:13;;;;;;;6.20;2.97;;;;;;;13.58;56.09;92734.16;5048911;28;20056;-82
2022/04/05 09:19:45;;;;;;;7.43;3.92;;;;;;;13.96;55.42;92685.25;5048737;28;20056;-82
2022/04/05 09:22:12;;;;;;;9.55;3.58;;;;;;;14.61;55.06;92718.09;5048602;28;20053;-82
2022/04/05 09:24:40;;;;;;;8.80;2.95;;;;;;;14.98;54.16;92714.00;5048787;28;20500;-83
2022/04/05 09:27:09;;;;;;;5.85;2.95;;;;;;;15.35;51.70;92713.19;5051964;28;20064;-82
2022/04/05 09:29:39;;;;;;;6.38;2.83;;;;;;;15.44;47.34;92703.94;5052140;28;20061;-82
2022/04/05 09:32:07;;;;;;;7.78;2.85;;;;;;;15.65;49.21;92713.59;5051800;28;20056;-82
2022/04/05 09:34:47;;;;;;;8.15;3.38;;;;;;;15.71;50.13;92712.56;5052114;28;20052;-83
2022/04/05 09:37:16;;;;;;;8.57;3.25;;;;;;;15.62;49.19;92697.53;5051710;28;20056;-82
2022/04/05 09:39:43;;;;;;;5.80;3.72;;;;;;;15.84;50.35;92706.16;5052006;28;20041;-83
2022/04/05 09:42:10;;;;;;;10.23;4.00;;;;;;;15.77;49.68;92691.63;5051874;28;20417;-82
2022/04/05 09:44:39;;;;;;;9.70;3.70;;;;;;;15.82;50.00;92682.28;5051503;28;20439;-82
2022/04/05 09:47:09;;;;;;;6.13;2.75;;;;;;;15.92;46.32;92700.47;5051466;28;20052;-82
2022/04/05 09:49:38;;;;;;;5.40;2.90;;;;;;;15.21;46.31;92700.72;5051468;28;20052;-82
2022/04/05 09:52:23;;;;;;;4.38;3.00;;;;;;;14.39;47.57;92706.84;5047939;28;20051;-82
2022/04/05 09:54:50;;;;;;;5.88;2.80;;;;;;;13.87;48.49;92666.84;5050125;28;20049;-82
2022/04/05 09:57:28;;;;;;;4.47;3.00;;;;;;;13.20;48.89;92659.13;5051197;28;20103;-82
2022/04/05 10:00:07;;;;;;;7.28;3.33;;;;;;;13.35;50.04;92594.81;5051247;28;20060;-82
2022/04/05 10:02:34;;;;;;;5.88;3.95;;;;;;;14.10;49.92;92681.28;5050904;28;20093;-82
2022/04/05 10:05:04;;;;;;;7.47;2.30;;;;;;;14.24;50.84;92663.56;5051609;28;20490;-82
2022/04/05 10:07:34;;;;;;;3.33;2.20;;;;;;;14.99;52.78;92684.56;5051330;28;20045;-82
2022/04/05 10:10:02;;;;;;;4.68;1.88;;;;;;;15.40;50.92;92677.00;5051451;28;20538;-83
2022/04/05 10:12:29;;;;;;;2.92;1.83;;;;;;;15.60;49.69;92654.81;5051118;28;20067;-83
2022/04/05 10:14:57;;;;;;;4.50;2.45;;;;;;;15.96;48.79;92667.09;5050906;28;20427;-83
2022/04/05 10:17:27;;;;;;;2.75;1.70;;;;;;;16.15;46.92;92655.19;5050802;28;20056;-83
2022/04/05 10:19:56;;;;;;;3.72;2.33;;;;;;;16.56;47.01;92672.59;5051176;28;20130;-83
2022/04/05 10:22:23;;;;;;;3.13;1.65;;;;;;;16.71;46.62;92668.41;5050644;28;20053;-83
2022/04/05 10:24:52;;;;;;;3.03;2.05;;;;;;;16.87;46.79;92642.47;5050606;28;20049;-83
2022/04/05 10:27:20;;;;;;;3.22;1.73;;;;;;;17.19;45.22;92664.75;5050561;28;20051;-84
2022/04/05 10:29:53;;;;;;;5.35;3.03;;;;;;;17.04;44.67;92613.66;5050534;28;20065;-83
2022/04/05 10:32:28;;;;;;;4.07;1.80;;;;;;;17.42;43.56;92657.41;5050823;28;20059;-83
2022/04/05 10:35:02;;;;;;;3.15;1.67;;;;;;;17.39;41.51;92645.72;5051149;28;20099;-83
2022/04/05 10:37:34;;;;;;;2.78;1.90;;;;;;;17.36;42.42;92641.06;5050313;28;20491;-83
2022/04/05 10:40:17;;;;;;;3.75;1.42;;;;;;;15.42;40.08;92651.63;5050439;28;20041;-83
2022/04/05 10:42:47;;;;;;;2.70;1.52;;;;;;;15.86;41.44;92637.53;5050798;28;20053;-83
2022/04/05 10:45:16;;;;;;;2.65;1.45;;;;;;;15.69;42.41;92600.72;5046371;28;20087;-83
2022/04/05 10:48:12;;;;;;;5.85;1.63;;;;;;;15.52;42.28;92642.34;5048804;28;20125;-83
2022/04/05 10:50:40;;;;;;;3.80;2.05;;;;;;;15.02;43.93;92627.94;5050265;28;20496;-83
2022/04/05 10:53:17;;;;;;;3.72;1.77;;;;;;;15.35;47.50;92640.72;5050244;28;20045;-83
2022/04/05 10:56:16;;;;;;;2.70;1.70;;;;;;;15.18;43.60;92635.75;5050440;28;20049;-83
2022/04/05 10:59:28;;;;;;;4.22;1.75;;;;;;;14.84;43.77;92587.75;5050138;28;20047;-83
2022/04/05 11:01:55;;;;;;;6.20;2.05;;;;;;;15.76;45.76;92612.41;5050735;28;20582;-83
2022/04/05 11:04:34;;;;;;;2.72;1.60;;;;;;;16.25;44.77;92618.16;5050966;28;20404;-83
2022/04/05 11:07:12;;;;;;;3.95;2.22;;;;;;;16.55;43.65;92598.44;5050498;28;20499;-83
2022/04/05 11:09:45;;;;;;;3.22;1.70;;;;;;;17.16;40.78;92621.13;5050598;28;20118;-83
2022/04/05 11:12:19;;;;;;;4.30;1.50;;;;;;;17.28;39.33;92600.09;5050771;28;20048;-83
2022/04/05 11:14:50;;;;;;;3.30;2.33;;;;;;;17.60;40.01;92609.28;5050431;28;20063;-81
2022/04/05 11:17:18;;;;;;;6.32;2.38;;;;;;;17.69;38.62;92601.72;5050550;28;20074;-81
2022/04/05 11:19:46;;;;;;;4.75;2.05;;;;;;;17.59;38.77;92605.16;5050396;28;20049;-81
2022/04/05 11:22:32;;;;;;;55.88;33.58;;;;;;;17.63;38.04;92599.13;5050346;28;20049;-81
2022/04/05 11:25:03;;;;;;;12.15;7.43;;;;;;;17.04;34.77;92546.97;5050474;28;20068;-83
2022/04/05 11:27:33;;;;;;;5.07;2.88;;;;;;;17.41;37.93;92580.56;5038620;28;20588;-83
2022/04/05 11:30:37;;;;;;;8.65;3.33;;;;;;;17.37;36.26;92569.94;5050154;28;20066;-83
2022/04/05 11:33:37;;;;;;;5.82;1.92;;;;;;;17.49;36.29;92585.97;5045994;28;20053;-83